createdAt,value
2017-10-23T00:01:24.975Z,11.20
2017-10-23T00:03:51.134Z,11.20
2017-10-23T00:06:17.204Z,11.20
2017-10-23T00:08:43.311Z,11.20
2017-10-23T00:11:10.167Z,11.20
2017-10-23T00:13:36.227Z,11.20
2017-10-23T00:16:02.316Z,11.20
2017-10-23T00:18:28.366Z,11.20
2017-10-23T00:20:54.461Z,11.20
2017-10-23T00:23:20.483Z,11.10
2017-10-23T00:25:46.581Z,11.10
2017-10-23T00:28:12.630Z,11.10
2017-10-23T00:30:38.678Z,11.10
2017-10-23T00:33:04.746Z,11.10
2017-10-23T00:35:31.542Z,11.10
2017-10-23T00:37:57.649Z,11.10
2017-10-23T00:40:23.899Z,11.00
2017-10-23T00:42:49.934Z,11.00
2017-10-23T00:45:15.990Z,11.00
2017-10-23T00:47:42.809Z,10.90
2017-10-23T00:50:08.881Z,10.90
2017-10-23T00:52:34.922Z,10.90
2017-10-23T00:55:01.424Z,11.10
2017-10-23T00:57:27.656Z,11.20
2017-10-23T00:59:53.737Z,11.10
2017-10-23T01:02:19.870Z,11.00
2017-10-23T01:04:46.776Z,11.00
2017-10-23T01:07:12.837Z,11.00
2017-10-23T01:09:39.664Z,11.00
2017-10-23T01:12:05.727Z,11.00
2017-10-23T01:14:31.787Z,11.10
2017-10-23T01:16:57.842Z,11.00
2017-10-23T01:19:23.914Z,11.00
2017-10-23T01:21:49.998Z,11.00
2017-10-23T01:24:16.786Z,11.10
2017-10-23T01:26:42.868Z,11.10
2017-10-23T01:29:08.927Z,11.10
2017-10-23T01:31:34.981Z,11.10
2017-10-23T01:34:01.050Z,11.10
2017-10-23T01:36:27.140Z,11.00
2017-10-23T01:38:53.953Z,11.20
2017-10-23T01:41:20.743Z,11.10
2017-10-23T01:43:46.803Z,11.10
2017-10-23T01:46:12.854Z,11.10
2017-10-23T01:48:38.890Z,11.00
2017-10-23T01:51:05.706Z,11.00
2017-10-23T01:53:31.761Z,11.00
2017-10-23T01:55:58.551Z,10.90
2017-10-23T01:58:24.739Z,10.90
2017-10-23T02:00:50.778Z,10.90
2017-10-23T02:03:16.834Z,10.90
2017-10-23T02:05:42.949Z,10.90
2017-10-23T02:08:09.004Z,10.90
2017-10-23T02:10:35.826Z,10.90
2017-10-23T02:13:01.883Z,10.90
2017-10-23T02:15:27.927Z,11.00
2017-10-23T02:17:53.997Z,10.90
2017-10-23T02:20:20.038Z,10.90
2017-10-23T02:22:47.070Z,10.90
2017-10-23T02:25:13.854Z,11.00
2017-10-23T02:27:39.868Z,11.00
2017-10-23T02:30:06.175Z,11.00
2017-10-23T02:32:32.232Z,11.00
2017-10-23T02:34:58.279Z,10.90
2017-10-23T02:37:24.529Z,11.00
2017-10-23T02:39:50.567Z,11.00
2017-10-23T02:42:17.378Z,11.00
2017-10-23T02:44:44.345Z,11.00
2017-10-23T02:47:11.130Z,11.10
2017-10-23T02:49:37.153Z,11.10
2017-10-23T02:52:03.249Z,11.20
2017-10-23T02:54:36.140Z,11.20
2017-10-23T02:57:02.214Z,11.10
2017-10-23T02:59:28.310Z,11.20
2017-10-23T03:01:54.333Z,11.20
2017-10-23T03:04:20.536Z,11.10
2017-10-23T03:06:46.853Z,11.10
2017-10-23T03:09:12.931Z,11.10
2017-10-23T03:11:38.993Z,11.10
2017-10-23T03:14:05.063Z,11.10
2017-10-23T03:16:31.145Z,11.10
2017-10-23T03:18:57.189Z,11.00
2017-10-23T03:21:23.292Z,11.00
2017-10-23T03:23:49.378Z,10.90
2017-10-23T03:26:15.441Z,11.00
2017-10-23T03:28:41.676Z,11.10
2017-10-23T03:31:07.751Z,11.10
2017-10-23T03:33:34.550Z,11.20
2017-10-23T03:36:00.631Z,11.20
2017-10-23T03:38:27.431Z,11.10
2017-10-23T03:40:53.487Z,11.00
2017-10-23T03:43:20.314Z,11.00
2017-10-23T03:45:46.404Z,11.00
2017-10-23T03:48:12.444Z,11.10
2017-10-23T03:50:39.413Z,11.10
2017-10-23T03:53:06.213Z,11.00
2017-10-23T03:55:32.274Z,11.00
2017-10-23T03:57:59.125Z,11.00
2017-10-23T04:00:25.935Z,10.90
2017-10-23T04:02:51.997Z,10.90
2017-10-23T04:05:18.131Z,11.00
2017-10-23T04:07:45.132Z,11.00
2017-10-23T04:10:11.182Z,11.10
2017-10-23T04:12:38.010Z,11.10
2017-10-23T04:15:04.850Z,11.10
2017-10-23T04:17:31.722Z,11.10
2017-10-23T04:19:57.834Z,11.10
2017-10-23T04:22:23.902Z,11.10
2017-10-23T04:24:49.970Z,11.10
2017-10-23T04:27:16.804Z,11.20
2017-10-23T04:29:43.594Z,11.20
2017-10-23T04:32:09.670Z,11.20
2017-10-23T04:34:36.484Z,11.10
2017-10-23T04:37:02.540Z,11.10
2017-10-23T04:39:29.321Z,11.10
2017-10-23T04:41:55.389Z,11.10
2017-10-23T04:44:22.173Z,11.20
2017-10-23T04:46:49.060Z,11.20
2017-10-23T04:49:15.875Z,11.20
2017-10-23T04:51:41.946Z,11.20
2017-10-23T04:54:08.743Z,11.20
2017-10-23T04:56:34.818Z,11.20
2017-10-23T04:59:00.852Z,11.20
2017-10-23T05:01:26.910Z,11.20
2017-10-23T05:03:52.998Z,11.20
2017-10-23T05:06:19.045Z,11.20
2017-10-23T05:08:45.218Z,11.20
2017-10-23T05:11:12.013Z,11.20
2017-10-23T05:13:38.082Z,11.20
2017-10-23T05:16:05.105Z,11.30
2017-10-23T05:18:31.940Z,11.30
2017-10-23T05:20:58.001Z,11.30
2017-10-23T05:23:24.094Z,11.30
2017-10-23T05:25:50.880Z,11.40
2017-10-23T05:28:16.925Z,11.40
2017-10-23T05:30:43.026Z,11.40
2017-10-23T05:33:09.064Z,11.50
2017-10-23T05:35:35.122Z,11.50
2017-10-23T05:38:01.467Z,11.50
2017-10-23T05:40:28.268Z,11.50
2017-10-23T05:42:54.325Z,11.50
2017-10-23T05:45:21.172Z,11.50
2017-10-23T05:47:47.974Z,11.50
2017-10-23T05:50:14.022Z,11.50
2017-10-23T05:52:41.170Z,11.60
2017-10-23T05:55:07.954Z,11.60
2017-10-23T05:57:34.011Z,11.60
2017-10-23T06:00:00.362Z,11.60
2017-10-23T06:02:27.150Z,11.60
2017-10-23T06:04:53.224Z,11.60
2017-10-23T06:07:20.073Z,11.60
2017-10-23T06:09:46.881Z,11.60
2017-10-23T06:12:12.933Z,11.60
2017-10-23T06:14:39.791Z,11.60
2017-10-23T06:17:05.866Z,11.60
2017-10-23T06:19:31.961Z,11.60
2017-10-23T06:21:58.347Z,11.70
2017-10-23T06:24:32.594Z,11.60
2017-10-23T06:26:58.724Z,11.60
2017-10-23T06:29:25.110Z,11.70
2017-10-23T06:31:51.937Z,11.80
2017-10-23T06:34:17.991Z,11.80
2017-10-23T06:36:44.067Z,11.80
2017-10-23T06:39:10.861Z,11.80
2017-10-23T06:41:36.922Z,11.80
2017-10-23T06:44:02.981Z,11.80
2017-10-23T06:46:29.786Z,12.00
2017-10-23T06:48:55.868Z,12.00
2017-10-23T06:51:21.933Z,11.90
2017-10-23T06:53:47.992Z,12.00
2017-10-23T06:56:15.033Z,12.00
2017-10-23T06:58:41.846Z,12.00
2017-10-23T07:01:07.905Z,12.00
2017-10-23T07:03:34.741Z,11.80
2017-10-23T07:06:01.554Z,11.90
2017-10-23T07:08:27.640Z,11.90
2017-10-23T07:10:53.753Z,11.90
2017-10-23T07:13:19.821Z,11.90
2017-10-23T07:15:45.887Z,11.90
2017-10-23T07:18:11.995Z,11.90
2017-10-23T07:20:38.782Z,11.90
2017-10-23T07:23:04.851Z,11.90
2017-10-23T07:25:31.664Z,11.90
2017-10-23T07:27:57.705Z,11.90
2017-10-23T07:30:23.764Z,11.80
2017-10-23T07:32:49.814Z,11.80
2017-10-23T07:35:15.881Z,11.90
2017-10-23T07:37:42.657Z,11.90
2017-10-23T07:40:08.706Z,11.90
2017-10-23T07:42:34.761Z,12.00
2017-10-23T07:45:01.591Z,11.90
2017-10-23T07:47:27.642Z,11.90
2017-10-23T07:49:54.445Z,12.00
2017-10-23T07:52:20.518Z,11.90
2017-10-23T07:54:46.537Z,11.90
2017-10-23T07:57:12.601Z,11.80
2017-10-23T07:59:38.689Z,11.80
2017-10-23T08:02:04.752Z,11.80
2017-10-23T08:04:30.814Z,11.80
2017-10-23T08:06:56.914Z,11.70
2017-10-23T08:09:23.919Z,11.80
2017-10-23T08:11:50.040Z,11.80
2017-10-23T08:14:16.190Z,11.80
2017-10-23T08:16:42.328Z,11.80
2017-10-23T08:19:08.480Z,11.90
2017-10-23T08:21:34.668Z,11.80
2017-10-23T08:24:00.789Z,11.90
2017-10-23T08:26:26.928Z,11.90
2017-10-23T08:28:53.072Z,11.90
2017-10-23T08:31:19.917Z,11.90
2017-10-23T08:33:46.779Z,11.90
2017-10-23T08:36:12.938Z,11.90
2017-10-23T08:38:39.048Z,11.90
2017-10-23T08:41:05.145Z,11.90
2017-10-23T08:43:31.272Z,11.90
2017-10-23T08:45:57.405Z,11.90
2017-10-23T08:48:23.511Z,11.90
2017-10-23T08:50:49.805Z,11.80
2017-10-23T08:53:15.865Z,11.90
2017-10-23T08:55:41.924Z,11.90
2017-10-23T08:58:08.046Z,11.80
2017-10-23T09:00:34.120Z,11.80
2017-10-23T09:03:00.286Z,11.80
2017-10-23T09:08:08.584Z,11.90
2017-10-23T09:10:34.677Z,12.00
2017-10-23T09:13:01.486Z,12.00
2017-10-23T09:15:27.554Z,12.00
2017-10-23T09:17:55.762Z,11.90
2017-10-23T09:20:21.822Z,11.90
2017-10-23T09:22:47.840Z,12.00
2017-10-23T09:25:13.885Z,11.90
2017-10-23T09:27:39.936Z,12.00
2017-10-23T09:30:05.961Z,11.90
2017-10-23T09:32:32.005Z,11.90
2017-10-23T09:34:58.058Z,11.90
2017-10-23T09:37:24.486Z,11.90
2017-10-23T09:39:50.591Z,12.00
2017-10-23T09:42:16.626Z,12.00
2017-10-23T09:44:42.709Z,12.00
2017-10-23T09:47:08.760Z,11.90
2017-10-23T09:49:34.825Z,11.90
2017-10-23T09:52:01.669Z,12.10
2017-10-23T09:54:27.727Z,12.10
2017-10-23T09:56:53.762Z,12.00
2017-10-23T09:59:20.120Z,12.00
2017-10-23T10:01:46.320Z,11.90
2017-10-23T10:04:12.369Z,12.10
2017-10-23T10:06:38.426Z,11.90
2017-10-23T10:09:04.465Z,12.00
2017-10-23T10:11:30.516Z,12.00
2017-10-23T10:13:56.808Z,11.90
2017-10-23T10:16:22.857Z,12.00
2017-10-23T10:18:48.949Z,12.10
2017-10-23T10:21:15.234Z,12.00
2017-10-23T10:23:41.289Z,12.00
2017-10-23T10:26:07.507Z,12.00
2017-10-23T10:28:33.626Z,12.00
2017-10-23T10:30:59.659Z,12.00
2017-10-23T10:33:25.689Z,12.00
2017-10-23T10:35:51.922Z,12.10
2017-10-23T10:38:18.001Z,12.10
2017-10-23T10:40:44.771Z,12.20
2017-10-23T10:43:11.075Z,12.20
2017-10-23T10:45:37.842Z,12.10
2017-10-23T10:48:03.878Z,12.10
2017-10-23T10:50:30.013Z,12.10
2017-10-23T10:52:56.059Z,12.00
2017-10-23T10:55:22.120Z,12.00
2017-10-23T10:57:48.417Z,12.00
2017-10-23T11:00:14.462Z,12.00
2017-10-23T11:02:40.600Z,11.90
2017-10-23T11:05:06.915Z,12.00
2017-10-23T11:07:32.950Z,12.10
2017-10-23T11:09:58.993Z,12.10
2017-10-23T11:12:25.055Z,12.00
2017-10-23T11:14:51.111Z,12.00
2017-10-23T11:17:17.177Z,12.10
2017-10-23T11:19:44.790Z,12.10
2017-10-23T11:22:10.882Z,12.20
2017-10-23T11:24:36.927Z,12.20
2017-10-23T11:27:04.775Z,12.20
2017-10-23T11:29:31.561Z,12.10
2017-10-23T11:31:57.601Z,12.10
2017-10-23T11:34:23.658Z,12.10
2017-10-23T11:36:50.494Z,12.20
2017-10-23T11:39:16.537Z,12.20
2017-10-23T11:41:42.575Z,12.20
2017-10-23T11:44:08.895Z,12.20
2017-10-23T11:46:34.954Z,12.40
2017-10-23T11:49:00.924Z,12.40
2017-10-23T11:51:27.652Z,12.40
2017-10-23T11:53:54.376Z,12.30
2017-10-23T11:56:20.548Z,12.20
2017-10-23T11:58:46.569Z,12.20
2017-10-23T12:01:12.561Z,12.20
2017-10-23T12:03:39.300Z,12.30
2017-10-23T12:06:06.003Z,12.20
2017-10-23T12:08:32.014Z,12.20
2017-10-23T12:10:57.962Z,12.20
2017-10-23T12:13:23.966Z,12.20
2017-10-23T12:15:50.322Z,12.30
2017-10-23T12:18:17.042Z,12.40
2017-10-23T12:20:43.009Z,12.40
2017-10-23T12:23:09.009Z,12.40
2017-10-23T12:25:35.765Z,12.40
2017-10-23T12:28:01.731Z,12.40
2017-10-23T12:30:27.709Z,12.40
2017-10-23T12:32:53.711Z,12.40
2017-10-23T12:35:20.417Z,12.20
2017-10-23T12:37:46.418Z,12.20
2017-10-23T12:40:12.681Z,12.20
2017-10-23T12:42:38.646Z,12.10
2017-10-23T12:45:04.616Z,12.20
2017-10-23T12:47:30.656Z,12.20
2017-10-23T12:49:57.360Z,12.10
2017-10-23T12:52:23.310Z,12.10
2017-10-23T12:54:50.085Z,12.10
2017-10-23T12:57:16.065Z,12.10
2017-10-23T12:59:42.794Z,12.10
2017-10-23T13:02:09.124Z,12.10
2017-10-23T13:04:35.128Z,12.10
2017-10-23T13:07:02.590Z,12.20
2017-10-23T13:09:28.921Z,12.20
2017-10-23T13:11:54.891Z,12.10
2017-10-23T13:14:20.872Z,12.10
2017-10-23T13:16:47.612Z,12.00
2017-10-23T13:19:14.329Z,12.10
2017-10-23T13:21:40.305Z,12.00
2017-10-23T13:24:06.300Z,12.10
2017-10-23T13:26:33.004Z,12.00
2017-10-23T13:28:58.994Z,12.00
2017-10-23T13:31:24.965Z,12.00
2017-10-23T13:33:50.928Z,12.00
2017-10-23T13:36:16.885Z,12.00
2017-10-23T13:38:43.154Z,11.90
2017-10-23T13:41:09.118Z,11.90
2017-10-23T13:43:35.091Z,12.00
2017-10-23T13:46:01.189Z,12.00
2017-10-23T13:48:27.165Z,12.00
2017-10-23T13:50:53.127Z,12.00
2017-10-23T13:53:19.364Z,12.10
2017-10-23T13:55:46.095Z,12.00
2017-10-23T13:58:12.834Z,11.90
2017-10-23T14:00:39.565Z,11.90
2017-10-23T14:03:05.537Z,12.00
2017-10-23T14:05:31.496Z,11.90
2017-10-23T14:07:57.483Z,12.00
2017-10-23T14:10:23.472Z,12.00
2017-10-23T14:12:49.433Z,11.90
2017-10-23T14:15:15.418Z,12.00
2017-10-23T14:17:41.380Z,11.90
2017-10-23T14:20:07.359Z,11.90
2017-10-23T14:22:33.963Z,11.90
2017-10-23T14:24:59.927Z,11.90
2017-10-23T14:27:25.884Z,11.90
2017-10-23T14:29:51.949Z,11.90
2017-10-23T14:32:17.945Z,11.90
2017-10-23T14:34:43.920Z,12.00
2017-10-23T14:37:10.012Z,12.20
2017-10-23T14:39:36.712Z,12.40
2017-10-23T14:42:02.677Z,12.40
2017-10-23T14:44:28.683Z,12.40
2017-10-23T14:46:55.384Z,12.50
2017-10-23T14:49:21.367Z,12.50
2017-10-23T14:51:47.356Z,12.40
2017-10-23T14:54:14.043Z,12.30
2017-10-23T14:56:40.012Z,12.30
2017-10-23T14:59:06.826Z,12.30
2017-10-23T15:01:32.783Z,12.30
2017-10-23T15:03:58.753Z,12.30
2017-10-23T15:06:24.799Z,12.30
2017-10-23T15:08:52.251Z,12.30
2017-10-23T15:11:18.260Z,12.30
2017-10-23T15:13:44.244Z,12.30
2017-10-23T15:16:10.251Z,12.30
2017-10-23T15:18:36.207Z,12.30
2017-10-23T15:21:02.546Z,12.30
2017-10-23T15:23:28.528Z,12.30
2017-10-23T15:25:54.490Z,12.30
2017-10-23T15:28:20.745Z,12.20
2017-10-23T15:30:47.445Z,12.20
2017-10-23T15:33:13.393Z,12.20
2017-10-23T15:35:39.520Z,12.10
2017-10-23T15:38:05.506Z,12.10
2017-10-23T15:40:31.471Z,12.10
2017-10-23T15:42:58.201Z,12.10
2017-10-23T15:45:24.900Z,12.10
2017-10-23T15:47:50.862Z,12.10
2017-10-23T15:50:17.633Z,12.20
2017-10-23T15:52:43.610Z,12.20
2017-10-23T15:55:09.576Z,12.10
2017-10-23T15:57:35.569Z,12.10
2017-10-23T16:00:02.308Z,12.10
2017-10-23T16:02:29.036Z,12.20
2017-10-23T16:04:55.737Z,12.10
2017-10-23T16:07:21.694Z,12.10
2017-10-23T16:09:48.429Z,12.20
2017-10-23T16:12:15.136Z,12.20
2017-10-23T16:14:41.114Z,12.20
2017-10-23T16:17:07.086Z,12.20
2017-10-23T16:19:33.053Z,12.20
2017-10-23T16:21:59.434Z,12.20
2017-10-23T16:24:25.461Z,12.20
2017-10-23T16:26:51.437Z,12.10
2017-10-23T16:29:17.414Z,12.10
2017-10-23T16:31:43.396Z,12.10
2017-10-23T16:34:09.369Z,12.10
2017-10-23T16:36:36.077Z,12.20
2017-10-23T16:39:03.137Z,12.20
2017-10-23T16:41:29.094Z,12.20
2017-10-23T16:43:55.112Z,12.20
2017-10-23T16:46:21.092Z,12.20
2017-10-23T16:48:47.237Z,12.20
2017-10-23T16:51:13.965Z,12.20
2017-10-23T16:53:40.114Z,12.20
2017-10-23T16:56:06.127Z,12.20
2017-10-23T16:58:32.861Z,12.10
2017-10-23T17:00:59.589Z,12.10
2017-10-23T17:03:26.284Z,12.00
2017-10-23T17:05:52.273Z,12.00
2017-10-23T17:08:18.418Z,12.00
2017-10-23T17:10:44.385Z,12.00
2017-10-23T17:13:10.351Z,11.90
2017-10-23T17:15:36.361Z,12.00
2017-10-23T17:18:02.337Z,11.90
2017-10-23T17:20:28.297Z,11.90
2017-10-23T17:22:54.335Z,11.90
2017-10-23T17:25:20.305Z,11.90
2017-10-23T17:27:46.285Z,11.80
2017-10-23T17:30:12.304Z,11.80
2017-10-23T17:32:38.257Z,11.80
2017-10-23T17:35:04.505Z,11.80
2017-10-23T17:37:31.212Z,11.70
2017-10-23T17:39:57.165Z,11.70
2017-10-23T17:42:23.922Z,11.70
2017-10-23T17:44:49.873Z,11.70
2017-10-23T17:47:15.836Z,11.80
2017-10-23T17:49:42.677Z,11.80
2017-10-23T17:52:09.385Z,11.80
2017-10-23T17:54:35.353Z,11.80
2017-10-23T17:57:01.444Z,11.80
2017-10-23T17:59:28.194Z,11.90
2017-10-23T18:01:54.905Z,11.90
2017-10-23T18:04:21.183Z,11.80
2017-10-23T18:06:47.165Z,11.90
2017-10-23T18:09:13.129Z,11.90
2017-10-23T18:11:39.115Z,11.90
2017-10-23T18:14:05.082Z,11.90
2017-10-23T18:16:31.070Z,11.90
2017-10-23T18:18:57.998Z,11.90
2017-10-23T18:21:24.707Z,11.90
2017-10-23T18:23:50.716Z,11.90
2017-10-23T18:26:16.748Z,11.90
2017-10-23T18:28:42.728Z,11.90
2017-10-23T18:31:08.702Z,11.90
2017-10-23T18:33:34.716Z,12.00
2017-10-23T18:36:00.694Z,11.90
2017-10-23T18:38:26.671Z,11.90
2017-10-23T18:40:53.008Z,11.90
2017-10-23T18:43:18.962Z,11.90
2017-10-23T18:45:44.930Z,12.00
2017-10-23T18:48:10.897Z,12.00
2017-10-23T18:50:37.095Z,11.90
2017-10-23T18:53:03.801Z,12.00
2017-10-23T18:55:29.791Z,11.90
2017-10-23T18:57:55.774Z,11.90
2017-10-23T19:00:22.503Z,11.90
2017-10-23T19:02:48.461Z,11.90
2017-10-23T19:05:14.479Z,12.00
2017-10-23T19:07:40.440Z,12.00
2017-10-23T19:10:06.430Z,12.00
2017-10-23T19:12:32.446Z,12.00
2017-10-23T19:14:58.418Z,11.90
2017-10-23T19:17:24.586Z,11.90
2017-10-23T19:19:50.978Z,11.90
2017-10-23T19:22:16.941Z,11.90
2017-10-23T19:24:42.917Z,11.90
2017-10-23T19:27:09.146Z,11.90
2017-10-23T19:29:35.120Z,11.90
2017-10-23T19:32:01.108Z,11.80
2017-10-23T19:34:27.812Z,11.90
2017-10-23T19:36:53.831Z,11.90
2017-10-23T19:39:19.834Z,11.90
2017-10-23T19:41:45.985Z,11.90
2017-10-23T19:44:11.966Z,11.90
2017-10-23T19:46:37.952Z,11.90
2017-10-23T19:49:04.257Z,11.90
2017-10-23T19:51:30.285Z,11.90
2017-10-23T19:53:56.261Z,11.90
2017-10-23T19:56:22.289Z,11.90
2017-10-23T19:58:48.271Z,11.90
2017-10-23T20:01:14.255Z,12.00
2017-10-23T20:03:40.265Z,12.00
2017-10-23T20:06:06.230Z,12.00
2017-10-23T20:08:32.473Z,12.00
2017-10-23T20:10:59.640Z,12.00
2017-10-23T20:13:25.605Z,12.00
2017-10-23T20:15:52.390Z,12.00
2017-10-23T20:18:18.653Z,12.00
2017-10-23T20:20:44.813Z,12.00
2017-10-23T20:23:17.929Z,12.00
2017-10-23T20:25:43.905Z,12.00
2017-10-23T20:28:10.609Z,12.00
2017-10-23T20:30:36.569Z,12.00
2017-10-23T20:33:03.501Z,12.00
2017-10-23T20:35:29.457Z,12.00
2017-10-23T20:37:55.481Z,12.00
2017-10-23T20:40:21.769Z,12.00
2017-10-23T20:42:48.472Z,12.00
2017-10-23T20:45:14.457Z,12.00
2017-10-23T20:47:40.521Z,12.00
2017-10-23T20:50:13.378Z,12.00
2017-10-23T20:52:39.381Z,11.90
2017-10-23T20:55:05.404Z,12.00
2017-10-23T20:57:31.405Z,12.00
2017-10-23T20:59:58.131Z,11.90
2017-10-23T21:02:24.838Z,11.90
2017-10-23T21:04:50.805Z,11.90
2017-10-23T21:07:17.552Z,12.00
2017-10-23T21:09:43.528Z,12.00
2017-10-23T21:12:09.479Z,12.00
2017-10-23T21:14:36.506Z,12.00
2017-10-23T21:17:02.489Z,12.00
2017-10-23T21:19:28.473Z,12.00
2017-10-23T21:21:55.220Z,11.90
2017-10-23T21:24:21.220Z,11.90
2017-10-23T21:26:47.928Z,11.90
2017-10-23T21:29:13.959Z,11.90
2017-10-23T21:31:39.930Z,11.90
2017-10-23T21:34:06.229Z,11.90
2017-10-23T21:36:32.934Z,11.90
2017-10-23T21:38:58.896Z,11.90
2017-10-23T21:41:25.615Z,12.00
2017-10-23T21:43:52.310Z,12.00
2017-10-23T21:46:30.663Z,12.00
2017-10-23T21:48:57.381Z,12.00
2017-10-23T21:51:23.367Z,12.00
2017-10-23T21:53:49.333Z,12.00
2017-10-23T21:56:15.297Z,12.00
2017-10-23T21:58:41.266Z,12.00
2017-10-23T22:01:07.245Z,12.00
2017-10-23T22:03:33.223Z,12.00
2017-10-23T22:05:59.950Z,11.90
2017-10-23T22:08:26.196Z,11.90
2017-10-23T22:10:52.888Z,12.00
2017-10-23T22:13:18.857Z,11.90
2017-10-23T22:15:45.590Z,11.90
2017-10-23T22:18:12.285Z,11.90
2017-10-23T22:20:38.248Z,11.90
2017-10-23T22:23:05.180Z,11.90
2017-10-23T22:25:31.887Z,11.90
2017-10-23T22:27:57.869Z,11.90
2017-10-23T22:30:23.897Z,11.90
2017-10-23T22:32:49.865Z,11.90
2017-10-23T22:35:15.820Z,11.90
2017-10-23T22:37:42.936Z,11.90
2017-10-23T22:40:08.900Z,11.90
2017-10-23T22:42:34.864Z,11.90
2017-10-23T22:45:01.252Z,11.90
2017-10-23T22:47:27.498Z,11.90
2017-10-23T22:49:53.457Z,11.90
2017-10-23T22:52:19.789Z,11.90
2017-10-23T22:54:46.515Z,11.90
2017-10-23T22:57:12.480Z,11.90
2017-10-23T22:59:38.502Z,11.90
2017-10-23T23:02:04.457Z,11.90
2017-10-23T23:04:30.449Z,11.90
2017-10-23T23:06:56.458Z,11.90
2017-10-23T23:09:22.433Z,11.90
2017-10-23T23:11:48.401Z,11.90
2017-10-23T23:14:14.608Z,11.90
2017-10-23T23:16:41.314Z,11.90
2017-10-23T23:19:07.293Z,11.90
2017-10-23T23:21:34.326Z,11.90
2017-10-23T23:24:00.312Z,11.90
2017-10-23T23:26:26.268Z,11.90
2017-10-23T23:28:52.238Z,11.90
2017-10-23T23:31:18.193Z,11.90
2017-10-23T23:33:44.214Z,11.90
2017-10-23T23:36:10.922Z,12.00
2017-10-23T23:38:36.893Z,12.00
2017-10-23T23:41:02.874Z,11.90
2017-10-23T23:43:29.607Z,11.90
2017-10-23T23:45:56.359Z,11.90
2017-10-23T23:48:23.074Z,12.00
2017-10-23T23:50:49.049Z,11.90
2017-10-23T23:53:15.137Z,12.00
2017-10-23T23:55:41.861Z,12.00
2017-10-23T23:58:07.829Z,12.00
